sensor_id;sensor_type;location;lat;lon;timestamp;temperature;humidity
7240;DHT22;3661;53.288;10.458;2022-07-23T00:01:30;16.70;99.90
7240;DHT22;3661;53.288;10.458;2022-07-23T00:04:02;16.60;99.90
7240;DHT22;3661;53.288;10.458;2022-07-23T00:06:34;16.60;99.90
7240;DHT22;3661;53.288;10.458;2022-07-23T00:09:08;16.60;99.90
7240;DHT22;3661;53.288;10.458;2022-07-23T00:11:40;16.50;99.90
7240;DHT22;3661;53.288;10.458;2022-07-23T00:14:12;16.50;99.90
7240;DHT22;3661;53.288;10.458;2022-07-23T00:16:44;16.50;99.90
7240;DHT22;3661;53.288;10.458;2022-07-23T00:19:16;16.40;99.90
7240;DHT22;3661;53.288;10.458;2022-07-23T00:21:48;16.40;99.90
7240;DHT22;3661;53.288;10.458;2022-07-23T00:24:22;16.40;99.90
7240;DHT22;3661;53.288;10.458;2022-07-23T00:26:54;16.40;99.90
7240;DHT22;3661;53.288;10.458;2022-07-23T00:29:26;16.30;99.90
7240;DHT22;3661;53.288;10.458;2022-07-23T00:31:58;16.30;99.90
7240;DHT22;3661;53.288;10.458;2022-07-23T00:34:33;16.30;99.90
7240;DHT22;3661;53.288;10.458;2022-07-23T00:37:05;16.20;99.90
7240;DHT22;3661;53.288;10.458;2022-07-23T00:39:40;16.20;99.90
7240;DHT22;3661;53.288;10.458;2022-07-23T00:42:14;16.20;99.90
7240;DHT22;3661;53.288;10.458;2022-07-23T00:44:46;16.20;99.90
7240;DHT22;3661;53.288;10.458;2022-07-23T00:47:18;16.10;99.90
7240;DHT22;3661;53.288;10.458;2022-07-23T00:49:51;16.10;99.90
7240;DHT22;3661;53.288;10.458;2022-07-23T00:52:23;16.10;99.90
7240;DHT22;3661;53.288;10.458;2022-07-23T00:54:57;16.00;99.90
7240;DHT22;3661;53.288;10.458;2022-07-23T00:57:29;16.00;99.90
7240;DHT22;3661;53.288;10.458;2022-07-23T01:00:04;16.00;99.90
7240;DHT22;3661;53.288;10.458;2022-07-23T01:02:37;15.90;99.90
7240;DHT22;3661;53.288;10.458;2022-07-23T01:05:09;15.90;99.90
7240;DHT22;3661;53.288;10.458;2022-07-23T01:07:42;15.90;99.90
7240;DHT22;3661;53.288;10.458;2022-07-23T01:10:18;15.80;99.90
7240;DHT22;3661;53.288;10.458;2022-07-23T01:13:09;15.80;99.90
7240;DHT22;3661;53.288;10.458;2022-07-23T01:15:42;15.80;99.90
7240;DHT22;3661;53.288;10.458;2022-07-23T01:18:14;15.80;99.90
7240;DHT22;3661;53.288;10.458;2022-07-23T01:20:47;15.80;99.90
7240;DHT22;3661;53.288;10.458;2022-07-23T01:23:21;15.70;99.90
7240;DHT22;3661;53.288;10.458;2022-07-23T01:25:54;15.70;99.90
7240;DHT22;3661;53.288;10.458;2022-07-23T01:28:28;15.70;99.90
7240;DHT22;3661;53.288;10.458;2022-07-23T01:31:00;15.70;99.90
7240;DHT22;3661;53.288;10.458;2022-07-23T01:33:32;15.70;99.90
7240;DHT22;3661;53.288;10.458;2022-07-23T01:36:06;15.60;99.90
7240;DHT22;3661;53.288;10.458;2022-07-23T01:38:42;15.60;99.90
7240;DHT22;3661;53.288;10.458;2022-07-23T01:41:14;15.60;99.90
7240;DHT22;3661;53.288;10.458;2022-07-23T01:43:47;15.60;99.90
7240;DHT22;3661;53.288;10.458;2022-07-23T01:46:19;15.60;99.90
7240;DHT22;3661;53.288;10.458;2022-07-23T01:48:52;15.50;99.90
7240;DHT22;3661;53.288;10.458;2022-07-23T01:51:24;15.50;99.90
7240;DHT22;3661;53.288;10.458;2022-07-23T01:53:58;15.50;99.90
7240;DHT22;3661;53.288;10.458;2022-07-23T01:56:31;15.40;99.90
7240;DHT22;3661;53.288;10.458;2022-07-23T01:59:03;15.40;99.90
7240;DHT22;3661;53.288;10.458;2022-07-23T02:01:36;15.40;99.90
7240;DHT22;3661;53.288;10.458;2022-07-23T02:04:11;15.40;99.90
7240;DHT22;3661;53.288;10.458;2022-07-23T02:06:45;15.40;99.90
7240;DHT22;3661;53.288;10.458;2022-07-23T02:09:19;15.30;99.90
7240;DHT22;3661;53.288;10.458;2022-07-23T02:11:51;15.30;99.90
7240;DHT22;3661;53.288;10.458;2022-07-23T02:14:23;15.30;99.90
7240;DHT22;3661;53.288;10.458;2022-07-23T02:16:55;15.30;99.90
7240;DHT22;3661;53.288;10.458;2022-07-23T02:19:27;15.20;99.90
7240;DHT22;3661;53.288;10.458;2022-07-23T02:21:59;15.20;99.90
7240;DHT22;3661;53.288;10.458;2022-07-23T02:24:33;15.20;99.90
7240;DHT22;3661;53.288;10.458;2022-07-23T02:27:05;15.10;99.90
7240;DHT22;3661;53.288;10.458;2022-07-23T02:29:41;15.10;99.90
7240;DHT22;3661;53.288;10.458;2022-07-23T02:32:13;15.00;99.90
7240;DHT22;3661;53.288;10.458;2022-07-23T02:34:45;15.00;99.90
7240;DHT22;3661;53.288;10.458;2022-07-23T02:37:19;14.90;99.90
7240;DHT22;3661;53.288;10.458;2022-07-23T02:39:52;14.90;99.90
7240;DHT22;3661;53.288;10.458;2022-07-23T02:42:24;14.80;99.90
7240;DHT22;3661;53.288;10.458;2022-07-23T02:44:56;14.70;99.90
7240;DHT22;3661;53.288;10.458;2022-07-23T02:47:28;14.70;99.90
7240;DHT22;3661;53.288;10.458;2022-07-23T02:50:03;14.60;99.90
7240;DHT22;3661;53.288;10.458;2022-07-23T02:52:35;14.60;99.90
7240;DHT22;3661;53.288;10.458;2022-07-23T02:55:09;14.60;99.90
7240;DHT22;3661;53.288;10.458;2022-07-23T02:57:41;14.50;99.90
7240;DHT22;3661;53.288;10.458;2022-07-23T03:00:14;14.50;99.90
7240;DHT22;3661;53.288;10.458;2022-07-23T03:02:46;14.40;99.90
7240;DHT22;3661;53.288;10.458;2022-07-23T03:05:19;14.40;99.90
7240;DHT22;3661;53.288;10.458;2022-07-23T03:07:51;14.40;99.90
7240;DHT22;3661;53.288;10.458;2022-07-23T03:10:25;14.40;99.90
7240;DHT22;3661;53.288;10.458;2022-07-23T03:12:57;14.40;99.90
7240;DHT22;3661;53.288;10.458;2022-07-23T03:15:29;14.30;99.90
7240;DHT22;3661;53.288;10.458;2022-07-23T03:18:02;14.30;99.90
7240;DHT22;3661;53.288;10.458;2022-07-23T03:20:34;14.30;99.90
7240;DHT22;3661;53.288;10.458;2022-07-23T03:23:06;14.20;99.90
7240;DHT22;3661;53.288;10.458;2022-07-23T03:25:41;14.20;99.90
7240;DHT22;3661;53.288;10.458;2022-07-23T03:28:13;14.20;99.90
7240;DHT22;3661;53.288;10.458;2022-07-23T03:30:46;14.10;99.90
7240;DHT22;3661;53.288;10.458;2022-07-23T03:33:20;14.10;99.90
7240;DHT22;3661;53.288;10.458;2022-07-23T03:35:53;14.10;99.90
7240;DHT22;3661;53.288;10.458;2022-07-23T03:38:26;14.00;99.90
7240;DHT22;3661;53.288;10.458;2022-07-23T03:41:00;14.00;99.90
7240;DHT22;3661;53.288;10.458;2022-07-23T03:43:32;13.90;99.90
7240;DHT22;3661;53.288;10.458;2022-07-23T03:46:06;13.90;99.90
7240;DHT22;3661;53.288;10.458;2022-07-23T03:48:39;13.90;99.90
7240;DHT22;3661;53.288;10.458;2022-07-23T03:51:11;13.80;99.90
7240;DHT22;3661;53.288;10.458;2022-07-23T03:53:43;13.80;99.90
7240;DHT22;3661;53.288;10.458;2022-07-23T03:56:17;13.80;99.90
7240;DHT22;3661;53.288;10.458;2022-07-23T03:58:49;13.80;99.90
7240;DHT22;3661;53.288;10.458;2022-07-23T04:01:21;13.70;99.90
7240;DHT22;3661;53.288;10.458;2022-07-23T04:03:54;13.70;99.90
7240;DHT22;3661;53.288;10.458;2022-07-23T04:06:27;13.70;99.90
7240;DHT22;3661;53.288;10.458;2022-07-23T04:08:59;13.70;99.90
7240;DHT22;3661;53.288;10.458;2022-07-23T04:11:33;13.70;99.90
7240;DHT22;3661;53.288;10.458;2022-07-23T04:14:05;13.70;99.90
7240;DHT22;3661;53.288;10.458;2022-07-23T04:16:37;13.70;99.90
7240;DHT22;3661;53.288;10.458;2022-07-23T04:19:09;13.80;99.90
7240;DHT22;3661;53.288;10.458;2022-07-23T04:21:42;13.80;99.90
7240;DHT22;3661;53.288;10.458;2022-07-23T04:24:15;13.80;99.90
7240;DHT22;3661;53.288;10.458;2022-07-23T04:26:50;13.90;99.90
7240;DHT22;3661;53.288;10.458;2022-07-23T04:29:23;13.90;99.90
7240;DHT22;3661;53.288;10.458;2022-07-23T04:31:56;14.00;99.90
7240;DHT22;3661;53.288;10.458;2022-07-23T04:34:28;14.00;99.90
7240;DHT22;3661;53.288;10.458;2022-07-23T04:37:00;14.10;99.90
7240;DHT22;3661;53.288;10.458;2022-07-23T04:39:32;14.20;99.90
7240;DHT22;3661;53.288;10.458;2022-07-23T04:42:06;14.20;99.90
7240;DHT22;3661;53.288;10.458;2022-07-23T04:44:38;14.30;99.90
7240;DHT22;3661;53.288;10.458;2022-07-23T04:47:10;14.30;99.90
7240;DHT22;3661;53.288;10.458;2022-07-23T04:49:43;14.30;99.90
7240;DHT22;3661;53.288;10.458;2022-07-23T04:52:15;14.40;99.90
7240;DHT22;3661;53.288;10.458;2022-07-23T04:54:47;14.40;99.90
7240;DHT22;3661;53.288;10.458;2022-07-23T04:57:21;14.40;99.90
7240;DHT22;3661;53.288;10.458;2022-07-23T04:59:53;14.50;99.90
7240;DHT22;3661;53.288;10.458;2022-07-23T05:02:25;14.50;99.90
7240;DHT22;3661;53.288;10.458;2022-07-23T05:04:57;14.50;99.90
7240;DHT22;3661;53.288;10.458;2022-07-23T05:07:29;14.50;99.90
7240;DHT22;3661;53.288;10.458;2022-07-23T05:10:01;14.50;99.90
7240;DHT22;3661;53.288;10.458;2022-07-23T05:12:35;14.50;99.90
7240;DHT22;3661;53.288;10.458;2022-07-23T05:15:07;14.50;99.90
7240;DHT22;3661;53.288;10.458;2022-07-23T05:17:39;14.50;99.90
7240;DHT22;3661;53.288;10.458;2022-07-23T05:20:11;14.50;99.90
7240;DHT22;3661;53.288;10.458;2022-07-23T05:22:44;14.50;99.90
7240;DHT22;3661;53.288;10.458;2022-07-23T05:25:16;14.50;99.90
7240;DHT22;3661;53.288;10.458;2022-07-23T05:27:51;14.50;99.90
7240;DHT22;3661;53.288;10.458;2022-07-23T05:30:23;14.50;99.90
7240;DHT22;3661;53.288;10.458;2022-07-23T05:32:55;14.50;99.90
7240;DHT22;3661;53.288;10.458;2022-07-23T05:35:28;14.50;99.90
7240;DHT22;3661;53.288;10.458;2022-07-23T05:38:01;14.50;99.90
7240;DHT22;3661;53.288;10.458;2022-07-23T05:40:33;14.50;99.90
7240;DHT22;3661;53.288;10.458;2022-07-23T05:43:06;14.50;99.90
7240;DHT22;3661;53.288;10.458;2022-07-23T05:45:40;14.50;99.90
7240;DHT22;3661;53.288;10.458;2022-07-23T05:48:12;14.60;99.90
7240;DHT22;3661;53.288;10.458;2022-07-23T05:50:46;14.60;99.90
7240;DHT22;3661;53.288;10.458;2022-07-23T05:53:18;14.70;99.90
7240;DHT22;3661;53.288;10.458;2022-07-23T05:55:52;14.70;99.90
7240;DHT22;3661;53.288;10.458;2022-07-23T05:58:26;14.80;99.90
7240;DHT22;3661;53.288;10.458;2022-07-23T06:00:59;14.80;99.90
7240;DHT22;3661;53.288;10.458;2022-07-23T06:03:32;14.80;99.90
7240;DHT22;3661;53.288;10.458;2022-07-23T06:06:05;14.80;99.90
7240;DHT22;3661;53.288;10.458;2022-07-23T06:08:37;14.90;99.90
7240;DHT22;3661;53.288;10.458;2022-07-23T06:11:09;14.90;99.90
7240;DHT22;3661;53.288;10.458;2022-07-23T06:13:43;14.90;99.90
7240;DHT22;3661;53.288;10.458;2022-07-23T06:16:16;14.90;99.90
7240;DHT22;3661;53.288;10.458;2022-07-23T06:18:48;14.90;99.90
7240;DHT22;3661;53.288;10.458;2022-07-23T06:21:20;14.90;99.90
7240;DHT22;3661;53.288;10.458;2022-07-23T06:23:52;14.90;99.90
7240;DHT22;3661;53.288;10.458;2022-07-23T06:26:24;15.00;99.90
7240;DHT22;3661;53.288;10.458;2022-07-23T06:28:57;15.00;99.90
7240;DHT22;3661;53.288;10.458;2022-07-23T06:31:29;15.10;99.90
7240;DHT22;3661;53.288;10.458;2022-07-23T06:34:02;15.20;99.90
7240;DHT22;3661;53.288;10.458;2022-07-23T06:36:34;15.20;99.90
7240;DHT22;3661;53.288;10.458;2022-07-23T06:39:06;15.30;99.90
7240;DHT22;3661;53.288;10.458;2022-07-23T06:41:38;15.40;99.90
7240;DHT22;3661;53.288;10.458;2022-07-23T06:44:11;15.50;99.90
7240;DHT22;3661;53.288;10.458;2022-07-23T06:46:47;15.50;99.90
7240;DHT22;3661;53.288;10.458;2022-07-23T06:49:19;15.60;99.90
7240;DHT22;3661;53.288;10.458;2022-07-23T06:51:51;15.70;99.90
7240;DHT22;3661;53.288;10.458;2022-07-23T06:54:23;15.80;99.90
7240;DHT22;3661;53.288;10.458;2022-07-23T06:56:55;15.90;99.90
7240;DHT22;3661;53.288;10.458;2022-07-23T06:59:29;15.90;99.90
7240;DHT22;3661;53.288;10.458;2022-07-23T07:02:01;16.00;99.90
7240;DHT22;3661;53.288;10.458;2022-07-23T07:04:33;16.00;99.90
7240;DHT22;3661;53.288;10.458;2022-07-23T07:07:05;16.10;99.90
7240;DHT22;3661;53.288;10.458;2022-07-23T07:09:37;16.20;99.90
7240;DHT22;3661;53.288;10.458;2022-07-23T07:12:09;16.20;99.90
7240;DHT22;3661;53.288;10.458;2022-07-23T07:14:44;16.30;99.90
7240;DHT22;3661;53.288;10.458;2022-07-23T07:17:16;16.40;99.90
7240;DHT22;3661;53.288;10.458;2022-07-23T07:19:48;16.40;99.90
7240;DHT22;3661;53.288;10.458;2022-07-23T07:22:20;16.40;99.90
7240;DHT22;3661;53.288;10.458;2022-07-23T07:24:52;16.50;99.90
7240;DHT22;3661;53.288;10.458;2022-07-23T07:27:24;16.50;99.90
7240;DHT22;3661;53.288;10.458;2022-07-23T07:29:58;16.60;99.90
7240;DHT22;3661;53.288;10.458;2022-07-23T07:32:30;16.60;99.90
7240;DHT22;3661;53.288;10.458;2022-07-23T07:35:03;16.70;99.90
7240;DHT22;3661;53.288;10.458;2022-07-23T07:37:35;16.70;99.90
7240;DHT22;3661;53.288;10.458;2022-07-23T07:40:08;16.80;99.90
7240;DHT22;3661;53.288;10.458;2022-07-23T07:42:47;16.90;99.90
7240;DHT22;3661;53.288;10.458;2022-07-23T07:45:21;16.90;99.90
7240;DHT22;3661;53.288;10.458;2022-07-23T07:47:54;17.00;99.90
7240;DHT22;3661;53.288;10.458;2022-07-23T07:50:26;17.10;99.90
7240;DHT22;3661;53.288;10.458;2022-07-23T07:52:58;17.20;99.90
7240;DHT22;3661;53.288;10.458;2022-07-23T07:55:30;17.30;99.90
7240;DHT22;3661;53.288;10.458;2022-07-23T07:58:03;17.40;99.90
7240;DHT22;3661;53.288;10.458;2022-07-23T08:00:36;17.50;99.90
7240;DHT22;3661;53.288;10.458;2022-07-23T08:03:08;17.60;99.90
7240;DHT22;3661;53.288;10.458;2022-07-23T08:05:40;17.70;99.90
7240;DHT22;3661;53.288;10.458;2022-07-23T08:08:12;17.80;99.90
7240;DHT22;3661;53.288;10.458;2022-07-23T08:10:46;17.90;99.90
7240;DHT22;3661;53.288;10.458;2022-07-23T08:13:18;18.10;99.90
7240;DHT22;3661;53.288;10.458;2022-07-23T08:15:51;18.20;99.90
7240;DHT22;3661;53.288;10.458;2022-07-23T08:18:24;18.30;99.90
7240;DHT22;3661;53.288;10.458;2022-07-23T08:20:56;18.40;99.90
7240;DHT22;3661;53.288;10.458;2022-07-23T08:23:29;18.50;99.90
7240;DHT22;3661;53.288;10.458;2022-07-23T08:26:01;18.70;99.90
7240;DHT22;3661;53.288;10.458;2022-07-23T08:28:33;18.80;99.90
7240;DHT22;3661;53.288;10.458;2022-07-23T08:31:06;18.90;99.90
7240;DHT22;3661;53.288;10.458;2022-07-23T08:33:38;19.00;99.90
7240;DHT22;3661;53.288;10.458;2022-07-23T08:36:10;19.10;99.90
7240;DHT22;3661;53.288;10.458;2022-07-23T08:38:43;19.20;99.90
7240;DHT22;3661;53.288;10.458;2022-07-23T08:41:15;19.30;99.90
7240;DHT22;3661;53.288;10.458;2022-07-23T08:43:48;19.40;99.90
7240;DHT22;3661;53.288;10.458;2022-07-23T08:46:22;19.50;99.90
7240;DHT22;3661;53.288;10.458;2022-07-23T08:48:54;19.60;99.90
7240;DHT22;3661;53.288;10.458;2022-07-23T08:51:27;19.70;99.90
7240;DHT22;3661;53.288;10.458;2022-07-23T08:54:00;19.80;99.90
7240;DHT22;3661;53.288;10.458;2022-07-23T08:56:32;19.90;99.90
7240;DHT22;3661;53.288;10.458;2022-07-23T08:59:04;19.90;99.90
7240;DHT22;3661;53.288;10.458;2022-07-23T09:01:38;19.90;99.90
7240;DHT22;3661;53.288;10.458;2022-07-23T09:04:10;19.90;99.90
7240;DHT22;3661;53.288;10.458;2022-07-23T09:06:42;19.90;99.90
7240;DHT22;3661;53.288;10.458;2022-07-23T09:09:18;19.90;99.90
7240;DHT22;3661;53.288;10.458;2022-07-23T09:12:03;19.90;99.90
7240;DHT22;3661;53.288;10.458;2022-07-23T09:14:40;19.90;99.90
7240;DHT22;3661;53.288;10.458;2022-07-23T09:17:14;19.90;99.90
7240;DHT22;3661;53.288;10.458;2022-07-23T09:19:47;19.90;99.90
7240;DHT22;3661;53.288;10.458;2022-07-23T09:22:21;19.90;99.90
7240;DHT22;3661;53.288;10.458;2022-07-23T09:25:10;19.90;99.90
7240;DHT22;3661;53.288;10.458;2022-07-23T09:27:51;19.90;99.90
7240;DHT22;3661;53.288;10.458;2022-07-23T09:30:25;19.90;99.90
7240;DHT22;3661;53.288;10.458;2022-07-23T09:33:10;19.90;99.90
7240;DHT22;3661;53.288;10.458;2022-07-23T09:35:50;19.90;99.90
7240;DHT22;3661;53.288;10.458;2022-07-23T09:38:24;19.90;99.90
7240;DHT22;3661;53.288;10.458;2022-07-23T09:41:06;20.00;99.90
7240;DHT22;3661;53.288;10.458;2022-07-23T09:43:38;20.10;99.90
7240;DHT22;3661;53.288;10.458;2022-07-23T09:46:20;20.30;99.90
7240;DHT22;3661;53.288;10.458;2022-07-23T09:48:56;20.40;99.90
7240;DHT22;3661;53.288;10.458;2022-07-23T09:51:28;20.60;99.90
7240;DHT22;3661;53.288;10.458;2022-07-23T09:54:04;20.70;99.90
7240;DHT22;3661;53.288;10.458;2022-07-23T09:56:37;21.00;99.90
7240;DHT22;3661;53.288;10.458;2022-07-23T09:59:09;21.20;99.90
7240;DHT22;3661;53.288;10.458;2022-07-23T10:01:42;21.30;99.90
7240;DHT22;3661;53.288;10.458;2022-07-23T10:04:17;21.30;99.50
7240;DHT22;3661;53.288;10.458;2022-07-23T10:06:52;21.30;99.80
7240;DHT22;3661;53.288;10.458;2022-07-23T10:09:27;21.30;99.90
7240;DHT22;3661;53.288;10.458;2022-07-23T10:12:01;21.30;99.90
7240;DHT22;3661;53.288;10.458;2022-07-23T10:14:38;21.50;99.90
7240;DHT22;3661;53.288;10.458;2022-07-23T10:17:11;21.60;99.90
7240;DHT22;3661;53.288;10.458;2022-07-23T10:19:45;21.70;99.60
7240;DHT22;3661;53.288;10.458;2022-07-23T10:22:20;21.70;99.30
7240;DHT22;3661;53.288;10.458;2022-07-23T10:25:00;21.80;99.50
7240;DHT22;3661;53.288;10.458;2022-07-23T10:30:33;21.80;98.50
7240;DHT22;3661;53.288;10.458;2022-07-23T10:33:21;21.80;98.60
7240;DHT22;3661;53.288;10.458;2022-07-23T10:36:02;21.70;98.00
7240;DHT22;3661;53.288;10.458;2022-07-23T10:38:40;21.70;98.70
7240;DHT22;3661;53.288;10.458;2022-07-23T10:41:14;21.80;98.90
7240;DHT22;3661;53.288;10.458;2022-07-23T10:44:06;21.80;98.20
7240;DHT22;3661;53.288;10.458;2022-07-23T10:46:56;21.90;98.50
7240;DHT22;3661;53.288;10.458;2022-07-23T10:49:43;22.00;98.10
7240;DHT22;3661;53.288;10.458;2022-07-23T10:52:25;22.10;98.10
7240;DHT22;3661;53.288;10.458;2022-07-23T10:58:07;22.20;98.00
7240;DHT22;3661;53.288;10.458;2022-07-23T11:00:39;22.20;97.50
7240;DHT22;3661;53.288;10.458;2022-07-23T11:03:31;22.30;97.40
7240;DHT22;3661;53.288;10.458;2022-07-23T11:06:04;22.50;97.10
7240;DHT22;3661;53.288;10.458;2022-07-23T11:08:38;22.60;97.80
7240;DHT22;3661;53.288;10.458;2022-07-23T11:11:11;22.90;96.80
7240;DHT22;3661;53.288;10.458;2022-07-23T11:13:49;23.00;95.60
7240;DHT22;3661;53.288;10.458;2022-07-23T11:16:23;23.00;94.80
7240;DHT22;3661;53.288;10.458;2022-07-23T11:19:14;23.10;95.20
7240;DHT22;3661;53.288;10.458;2022-07-23T11:21:48;23.10;95.10
7240;DHT22;3661;53.288;10.458;2022-07-23T11:24:23;23.20;94.30
7240;DHT22;3661;53.288;10.458;2022-07-23T11:26:59;23.10;94.40
7240;DHT22;3661;53.288;10.458;2022-07-23T11:29:45;23.10;93.90
7240;DHT22;3661;53.288;10.458;2022-07-23T11:32:29;22.90;94.20
7240;DHT22;3661;53.288;10.458;2022-07-23T11:35:21;22.90;94.10
7240;DHT22;3661;53.288;10.458;2022-07-23T11:37:54;22.80;93.90
7240;DHT22;3661;53.288;10.458;2022-07-23T11:40:35;22.80;94.20
7240;DHT22;3661;53.288;10.458;2022-07-23T11:43:09;22.80;94.40
7240;DHT22;3661;53.288;10.458;2022-07-23T11:45:46;22.80;94.20
7240;DHT22;3661;53.288;10.458;2022-07-23T11:48:20;22.90;94.30
7240;DHT22;3661;53.288;10.458;2022-07-23T11:50:54;23.10;94.30
7240;DHT22;3661;53.288;10.458;2022-07-23T11:53:32;23.40;94.20
7240;DHT22;3661;53.288;10.458;2022-07-23T11:56:11;23.60;94.50
7240;DHT22;3661;53.288;10.458;2022-07-23T11:58:54;23.90;93.70
7240;DHT22;3661;53.288;10.458;2022-07-23T12:01:28;24.20;94.30
7240;DHT22;3661;53.288;10.458;2022-07-23T12:04:00;24.40;94.60
7240;DHT22;3661;53.288;10.458;2022-07-23T12:06:37;24.60;93.10
7240;DHT22;3661;53.288;10.458;2022-07-23T12:09:10;24.70;92.90
7240;DHT22;3661;53.288;10.458;2022-07-23T12:11:57;24.80;93.10
7240;DHT22;3661;53.288;10.458;2022-07-23T12:14:30;24.90;92.50
7240;DHT22;3661;53.288;10.458;2022-07-23T12:17:08;24.90;91.60
7240;DHT22;3661;53.288;10.458;2022-07-23T12:19:40;24.90;91.40
7240;DHT22;3661;53.288;10.458;2022-07-23T12:22:13;24.80;91.80
7240;DHT22;3661;53.288;10.458;2022-07-23T12:24:56;24.80;91.00
7240;DHT22;3661;53.288;10.458;2022-07-23T12:27:30;24.60;90.80
7240;DHT22;3661;53.288;10.458;2022-07-23T12:30:22;24.40;90.60
7240;DHT22;3661;53.288;10.458;2022-07-23T12:32:58;24.40;91.40
7240;DHT22;3661;53.288;10.458;2022-07-23T12:35:37;24.30;90.90
7240;DHT22;3661;53.288;10.458;2022-07-23T12:38:13;24.30;91.00
7240;DHT22;3661;53.288;10.458;2022-07-23T12:40:49;24.30;91.30
7240;DHT22;3661;53.288;10.458;2022-07-23T12:43:25;24.50;92.30
7240;DHT22;3661;53.288;10.458;2022-07-23T12:46:03;24.60;91.10
7240;DHT22;3661;53.288;10.458;2022-07-23T12:48:36;24.60;90.60
7240;DHT22;3661;53.288;10.458;2022-07-23T12:51:29;24.80;91.70
7240;DHT22;3661;53.288;10.458;2022-07-23T12:54:28;24.80;90.80
7240;DHT22;3661;53.288;10.458;2022-07-23T12:57:01;24.90;90.10
7240;DHT22;3661;53.288;10.458;2022-07-23T12:59:40;25.00;90.00
7240;DHT22;3661;53.288;10.458;2022-07-23T13:02:17;25.00;90.10
7240;DHT22;3661;53.288;10.458;2022-07-23T13:04:55;25.10;91.00
7240;DHT22;3661;53.288;10.458;2022-07-23T13:07:28;25.20;90.70
7240;DHT22;3661;53.288;10.458;2022-07-23T13:10:01;25.40;90.50
7240;DHT22;3661;53.288;10.458;2022-07-23T13:12:34;25.60;90.00
7240;DHT22;3661;53.288;10.458;2022-07-23T13:15:51;25.70;90.20
7240;DHT22;3661;53.288;10.458;2022-07-23T13:18:24;25.80;90.00
7240;DHT22;3661;53.288;10.458;2022-07-23T13:20:56;25.90;90.00
7240;DHT22;3661;53.288;10.458;2022-07-23T13:23:28;25.90;88.10
7240;DHT22;3661;53.288;10.458;2022-07-23T13:26:01;25.90;88.80
7240;DHT22;3661;53.288;10.458;2022-07-23T13:28:33;25.90;88.60
7240;DHT22;3661;53.288;10.458;2022-07-23T13:31:06;25.80;87.60
7240;DHT22;3661;53.288;10.458;2022-07-23T13:33:39;25.80;87.50
7240;DHT22;3661;53.288;10.458;2022-07-23T13:36:11;25.60;88.00
7240;DHT22;3661;53.288;10.458;2022-07-23T13:38:43;25.60;89.00
7240;DHT22;3661;53.288;10.458;2022-07-23T13:41:16;25.50;88.20
7240;DHT22;3661;53.288;10.458;2022-07-23T13:43:49;25.50;87.60
7240;DHT22;3661;53.288;10.458;2022-07-23T13:46:23;25.50;88.40
7240;DHT22;3661;53.288;10.458;2022-07-23T13:48:55;25.50;88.40
7240;DHT22;3661;53.288;10.458;2022-07-23T13:51:27;25.60;86.90
7240;DHT22;3661;53.288;10.458;2022-07-23T13:53:59;25.60;87.90
7240;DHT22;3661;53.288;10.458;2022-07-23T13:56:33;25.50;86.20
7240;DHT22;3661;53.288;10.458;2022-07-23T13:59:05;25.40;86.30
7240;DHT22;3661;53.288;10.458;2022-07-23T14:01:39;25.30;86.20
7240;DHT22;3661;53.288;10.458;2022-07-23T14:04:11;25.20;86.00
7240;DHT22;3661;53.288;10.458;2022-07-23T14:06:43;25.00;86.50
7240;DHT22;3661;53.288;10.458;2022-07-23T14:09:15;25.00;86.50
7240;DHT22;3661;53.288;10.458;2022-07-23T14:11:47;24.90;86.90
7240;DHT22;3661;53.288;10.458;2022-07-23T14:14:20;24.80;87.10
7240;DHT22;3661;53.288;10.458;2022-07-23T14:16:55;24.80;87.50
7240;DHT22;3661;53.288;10.458;2022-07-23T14:19:28;24.80;88.60
7240;DHT22;3661;53.288;10.458;2022-07-23T14:22:01;24.80;89.30
7240;DHT22;3661;53.288;10.458;2022-07-23T14:24:33;24.60;89.70
7240;DHT22;3661;53.288;10.458;2022-07-23T14:27:05;24.40;90.10
7240;DHT22;3661;53.288;10.458;2022-07-23T14:29:37;24.20;90.20
7240;DHT22;3661;53.288;10.458;2022-07-23T14:32:11;24.00;90.40
7240;DHT22;3661;53.288;10.458;2022-07-23T14:34:43;24.00;90.50
7240;DHT22;3661;53.288;10.458;2022-07-23T14:37:15;24.00;90.60
7240;DHT22;3661;53.288;10.458;2022-07-23T14:39:47;24.10;90.70
7240;DHT22;3661;53.288;10.458;2022-07-23T14:42:19;24.20;90.60
7240;DHT22;3661;53.288;10.458;2022-07-23T14:44:52;24.40;90.60
7240;DHT22;3661;53.288;10.458;2022-07-23T14:47:25;24.40;90.00
7240;DHT22;3661;53.288;10.458;2022-07-23T14:49:57;24.40;89.60
7240;DHT22;3661;53.288;10.458;2022-07-23T14:52:29;24.30;90.00
7240;DHT22;3661;53.288;10.458;2022-07-23T14:55:02;24.40;90.20
7240;DHT22;3661;53.288;10.458;2022-07-23T14:57:36;24.40;90.30
7240;DHT22;3661;53.288;10.458;2022-07-23T15:00:09;24.50;90.20
7240;DHT22;3661;53.288;10.458;2022-07-23T15:02:43;24.50;90.00
7240;DHT22;3661;53.288;10.458;2022-07-23T15:05:15;24.60;90.00
7240;DHT22;3661;53.288;10.458;2022-07-23T15:07:47;24.70;89.90
7240;DHT22;3661;53.288;10.458;2022-07-23T15:10:19;24.70;89.40
7240;DHT22;3661;53.288;10.458;2022-07-23T15:12:52;24.70;89.50
7240;DHT22;3661;53.288;10.458;2022-07-23T15:15:24;24.60;89.40
7240;DHT22;3661;53.288;10.458;2022-07-23T15:17:57;24.40;89.80
7240;DHT22;3661;53.288;10.458;2022-07-23T15:20:29;24.20;90.10
7240;DHT22;3661;53.288;10.458;2022-07-23T15:23:01;24.20;90.20
7240;DHT22;3661;53.288;10.458;2022-07-23T15:25:34;24.10;90.30
7240;DHT22;3661;53.288;10.458;2022-07-23T15:28:06;24.10;90.30
7240;DHT22;3661;53.288;10.458;2022-07-23T15:30:38;24.00;90.00
7240;DHT22;3661;53.288;10.458;2022-07-23T15:33:12;23.90;89.50
7240;DHT22;3661;53.288;10.458;2022-07-23T15:35:44;23.90;89.90
7240;DHT22;3661;53.288;10.458;2022-07-23T15:38:17;23.90;89.60
7240;DHT22;3661;53.288;10.458;2022-07-23T15:40:49;23.90;89.50
7240;DHT22;3661;53.288;10.458;2022-07-23T15:43:21;23.90;89.80
7240;DHT22;3661;53.288;10.458;2022-07-23T15:45:53;23.90;90.10
7240;DHT22;3661;53.288;10.458;2022-07-23T15:48:27;23.90;89.90
7240;DHT22;3661;53.288;10.458;2022-07-23T15:50:59;23.90;89.80
7240;DHT22;3661;53.288;10.458;2022-07-23T15:53:32;24.00;89.70
7240;DHT22;3661;53.288;10.458;2022-07-23T15:56:06;24.10;89.50
7240;DHT22;3661;53.288;10.458;2022-07-23T15:58:39;24.30;89.70
7240;DHT22;3661;53.288;10.458;2022-07-23T16:01:11;24.40;88.80
7240;DHT22;3661;53.288;10.458;2022-07-23T16:03:44;24.50;88.30
7240;DHT22;3661;53.288;10.458;2022-07-23T16:06:17;24.50;88.60
7240;DHT22;3661;53.288;10.458;2022-07-23T16:08:49;24.60;88.60
7240;DHT22;3661;53.288;10.458;2022-07-23T16:11:21;24.70;88.30
7240;DHT22;3661;53.288;10.458;2022-07-23T16:13:53;24.80;87.80
7240;DHT22;3661;53.288;10.458;2022-07-23T16:16:26;24.80;87.70
7240;DHT22;3661;53.288;10.458;2022-07-23T16:19:00;24.70;87.30
7240;DHT22;3661;53.288;10.458;2022-07-23T16:21:32;24.60;87.10
7240;DHT22;3661;53.288;10.458;2022-07-23T16:24:05;24.40;87.20
7240;DHT22;3661;53.288;10.458;2022-07-23T16:26:37;24.30;87.50
7240;DHT22;3661;53.288;10.458;2022-07-23T16:29:09;24.30;87.40
7240;DHT22;3661;53.288;10.458;2022-07-23T16:31:41;24.30;87.40
7240;DHT22;3661;53.288;10.458;2022-07-23T16:34:15;24.30;87.50